Time;durP1;ratioP1;P1;durP2;ratioP2;P2;SDS_P1;SDS_P2;PMS_P1;PMS_P2;Temp;Humidity;BMP_temperature;BMP_pressure;BME280_temperature;BME280_humidity;BME280_pressure;Samples;Min_cycle;Max_cycle;Signal;HPM_P1;HPM_P2
2021/04/20 00:00:14;;;;;;;9.27;7.53;;;;;;;;;;5043723;28;20021;-64
2021/04/20 00:02:39;;;;;;;7.35;4.97;;;;;;;;;;5046363;28;20048;-63
2021/04/20 00:05:05;;;;;;;10.27;7.65;;;;;;;;;;5046063;28;20021;-64
2021/04/20 00:07:31;;;;;;;5.90;4.60;;;;;;;;;;5043097;28;20025;-64
2021/04/20 00:09:56;;;;;;;10.77;5.57;;;;;;;;;;5042636;28;20025;-63
2021/04/20 00:12:21;;;;;;;4.70;3.45;;;;;;;;;;5045318;28;20047;-63
2021/04/20 00:14:47;;;;;;;7.68;3.65;;;;;;;;;;5044967;28;20025;-64
2021/04/20 00:17:12;;;;;;;6.72;3.50;;;;;;;;;;5043417;28;20037;-64
2021/04/20 00:19:37;;;;;;;7.18;2.80;;;;;;;;;;5044682;28;20025;-64
2021/04/20 00:22:03;;;;;;;6.05;3.35;;;;;;;;;;5045359;28;20036;-64
2021/04/20 00:24:28;;;;;;;5.75;3.85;;;;;;;;;;5044629;28;20061;-63
2021/04/20 00:26:53;;;;;;;7.32;2.92;;;;;;;;;;5039814;28;20048;-67
2021/04/20 00:29:18;;;;;;;6.70;4.47;;;;;;;;;;5044957;28;20024;-67
2021/04/20 00:31:44;;;;;;;8.48;4.88;;;;;;;;;;5045192;28;20041;-67
2021/04/20 00:34:09;;;;;;;8.95;4.93;;;;;;;;;;5042584;28;20028;-67
2021/04/20 00:36:34;;;;;;;7.00;4.57;;;;;;;;;;5043706;28;20017;-67
2021/04/20 00:39:00;;;;;;;8.88;4.57;;;;;;;;;;5045310;28;20021;-67
2021/04/20 00:41:25;;;;;;;5.80;4.35;;;;;;;;;;5045726;28;20100;-67
2021/04/20 00:43:50;;;;;;;7.60;4.75;;;;;;;;;;5046847;28;20036;-67
2021/04/20 00:46:17;;;;;;;11.00;4.63;;;;;;;;;;5045479;28;20019;-67
2021/04/20 00:48:42;;;;;;;6.05;3.10;;;;;;;;;;5042901;28;20464;-67
2021/04/20 00:51:08;;;;;;;6.50;3.63;;;;;;;;;;5045311;28;20079;-68
2021/04/20 00:53:34;;;;;;;9.13;4.47;;;;;;;;;;5059341;28;20059;-64
2021/04/20 00:55:59;;;;;;;4.25;3.83;;;;;;;;;;5042886;28;20020;-65
2021/04/20 00:58:24;;;;;;;8.60;4.65;;;;;;;;;;5044979;28;20100;-64
2021/04/20 01:00:50;;;;;;;4.88;4.40;;;;;;;;;;5045391;28;20025;-64
2021/04/20 01:03:16;;;;;;;5.40;4.50;;;;;;;;;;5048551;28;20064;-64
2021/04/20 01:05:42;;;;;;;10.90;5.45;;;;;;;;;;5046933;28;20032;-64
2021/04/20 01:08:08;;;;;;;9.15;5.10;;;;;;;;;;5049030;28;20040;-64
2021/04/20 01:10:35;;;;;;;17.05;5.95;;;;;;;;;;5063127;28;20025;-64
2021/04/20 01:13:02;;;;;;;6.47;4.97;;;;;;;;;;5063555;28;20757;-64
2021/04/20 01:15:27;;;;;;;7.97;5.22;;;;;;;;;;5046036;28;20024;-64
2021/04/20 01:17:52;;;;;;;8.57;5.10;;;;;;;;;;5044372;28;20045;-65
2021/04/20 01:20:18;;;;;;;5.35;3.88;;;;;;;;;;5045788;28;20152;-65
2021/04/20 01:22:45;;;;;;;8.50;5.80;;;;;;;;;;5048485;28;20036;-65
2021/04/20 01:25:12;;;;;;;15.52;6.75;;;;;;;;;;5043079;28;20057;-65
2021/04/20 01:27:37;;;;;;;32.80;14.10;;;;;;;;;;5045163;28;20058;-65
2021/04/20 01:30:04;;;;;;;11.85;7.97;;;;;;;;;;5042933;28;20475;-65
2021/04/20 01:32:29;;;;;;;7.20;4.28;;;;;;;;;;5045296;28;20566;-65
2021/04/20 01:34:56;;;;;;;13.60;5.47;;;;;;;;;;5040805;28;20029;-65
2021/04/20 01:37:21;;;;;;;6.72;5.40;;;;;;;;;;5040777;28;20029;-66
2021/04/20 01:39:47;;;;;;;6.28;4.10;;;;;;;;;;5047768;28;20029;-65
2021/04/20 01:42:12;;;;;;;10.85;5.38;;;;;;;;;;5042974;28;20789;-65
2021/04/20 01:44:38;;;;;;;8.63;6.55;;;;;;;;;;5042300;28;20017;-64
2021/04/20 01:47:04;;;;;;;14.98;7.43;;;;;;;;;;5041617;28;20029;-65
2021/04/20 01:49:29;;;;;;;9.68;8.02;;;;;;;;;;5047200;28;20039;-65
2021/04/20 01:51:54;;;;;;;8.82;6.90;;;;;;;;;;5041682;28;20651;-65
2021/04/20 01:54:20;;;;;;;12.68;7.38;;;;;;;;;;5038588;28;20024;-67
2021/04/20 01:56:46;;;;;;;9.43;5.47;;;;;;;;;;5044612;28;20029;-68
2021/04/20 01:59:11;;;;;;;15.55;3.97;;;;;;;;;;5047122;28;20018;-68
2021/04/20 02:01:37;;;;;;;4.13;3.72;;;;;;;;;;5039309;28;20490;-67
2021/04/20 02:04:02;;;;;;;6.40;3.67;;;;;;;;;;5039819;28;20025;-68
2021/04/20 02:06:27;;;;;;;6.65;3.80;;;;;;;;;;5048334;28;20464;-68
2021/04/20 02:08:53;;;;;;;5.30;4.38;;;;;;;;;;5042457;28;20729;-68
2021/04/20 02:11:19;;;;;;;7.88;4.13;;;;;;;;;;5039899;28;20040;-67
2021/04/20 02:13:45;;;;;;;5.95;4.10;;;;;;;;;;5036668;28;20024;-67
2021/04/20 02:16:11;;;;;;;4.95;3.40;;;;;;;;;;5043423;28;20502;-67
2021/04/20 02:18:51;;;;;;;6.72;3.78;;;;;;;;;;5041648;28;20046;-67
2021/04/20 02:21:17;;;;;;;4.53;3.47;;;;;;;;;;5035656;28;20438;-67
2021/04/20 02:23:43;;;;;;;7.43;4.78;;;;;;;;;;5041468;28;20547;-67
2021/04/20 02:26:14;;;;;;;10.50;7.75;;;;;;;;;;5046912;28;20090;-67
2021/04/20 02:28:39;;;;;;;14.88;11.68;;;;;;;;;;5044190;28;20060;-67
2021/04/20 02:31:06;;;;;;;12.25;9.30;;;;;;;;;;5040418;28;20053;-67
2021/04/20 02:33:32;;;;;;;4.63;3.42;;;;;;;;;;5044697;28;20021;-68
2021/04/20 02:35:58;;;;;;;5.60;4.75;;;;;;;;;;5043874;28;20040;-68
2021/04/20 02:38:24;;;;;;;5.60;3.88;;;;;;;;;;5043649;28;20029;-68
2021/04/20 02:40:52;;;;;;;2.58;2.38;;;;;;;;;;5039244;28;20036;-68
2021/04/20 02:43:17;;;;;;;3.47;2.38;;;;;;;;;;5047086;28;20036;-68
2021/04/20 02:45:43;;;;;;;3.30;2.10;;;;;;;;;;5043374;28;20074;-64
2021/04/20 02:48:09;;;;;;;3.42;2.17;;;;;;;;;;5042882;28;20488;-64
2021/04/20 02:50:34;;;;;;;3.30;2.75;;;;;;;;;;5046270;28;20029;-67
2021/04/20 02:53:00;;;;;;;3.63;2.60;;;;;;;;;;5047906;28;20029;-68
2021/04/20 02:55:26;;;;;;;5.03;3.00;;;;;;;;;;5047955;28;20376;-68
2021/04/20 02:58:02;;;;;;;3.53;2.38;;;;;;;;;;5046744;28;20497;-67
2021/04/20 03:00:27;;;;;;;3.55;2.53;;;;;;;;;;5047721;28;20056;-67
2021/04/20 03:02:54;;;;;;;3.05;2.05;;;;;;;;;;5046091;28;20037;-67
2021/04/20 03:05:20;;;;;;;3.47;2.35;;;;;;;;;;5044608;28;20043;-67
2021/04/20 03:07:46;;;;;;;3.70;2.33;;;;;;;;;;5045472;28;20029;-67
2021/04/20 03:10:13;;;;;;;8.35;2.38;;;;;;;;;;5045181;28;20570;-67
2021/04/20 03:12:39;;;;;;;3.88;2.30;;;;;;;;;;5044767;28;20435;-67
2021/04/20 03:15:05;;;;;;;5.07;2.17;;;;;;;;;;5043470;28;20027;-67
2021/04/20 03:17:31;;;;;;;3.08;2.10;;;;;;;;;;5044906;28;20377;-67
2021/04/20 03:19:56;;;;;;;4.38;3.15;;;;;;;;;;5043522;28;20043;-67
2021/04/20 03:22:23;;;;;;;4.60;2.33;;;;;;;;;;5042827;28;20060;-67
2021/04/20 03:24:48;;;;;;;7.10;2.30;;;;;;;;;;5042046;28;20414;-68
2021/04/20 03:27:14;;;;;;;3.10;2.15;;;;;;;;;;5046504;28;20036;-68
2021/04/20 03:29:39;;;;;;;3.63;2.90;;;;;;;;;;5041748;28;20432;-64
2021/04/20 03:32:04;;;;;;;3.00;2.20;;;;;;;;;;5041859;28;20021;-64
2021/04/20 03:34:30;;;;;;;2.85;2.17;;;;;;;;;;5042568;28;20090;-64
2021/04/20 03:36:58;;;;;;;3.42;2.63;;;;;;;;;;5043452;28;20597;-65
2021/04/20 03:39:25;;;;;;;4.85;3.30;;;;;;;;;;5041593;28;20040;-65
2021/04/20 03:41:58;;;;;;;3.30;2.22;;;;;;;;;;5040203;28;20108;-65
2021/04/20 03:44:36;;;;;;;3.92;2.67;;;;;;;;;;5041364;28;20025;-64
2021/04/20 03:47:06;;;;;;;5.60;2.85;;;;;;;;;;5042274;28;20031;-64
2021/04/20 03:49:36;;;;;;;4.00;2.85;;;;;;;;;;5041521;28;20032;-64
2021/04/20 03:52:03;;;;;;;6.90;3.42;;;;;;;;;;5039114;28;20075;-64
2021/04/20 03:54:30;;;;;;;4.55;3.35;;;;;;;;;;5042527;28;20033;-64
2021/04/20 03:56:58;;;;;;;4.75;3.25;;;;;;;;;;5040371;28;20109;-63
2021/04/20 03:59:25;;;;;;;3.65;3.08;;;;;;;;;;5037906;28;20033;-63
2021/04/20 04:01:51;;;;;;;3.13;2.17;;;;;;;;;;5042386;28;20032;-63
2021/04/20 04:04:18;;;;;;;3.38;2.35;;;;;;;;;;5045621;28;20041;-62
2021/04/20 04:06:43;;;;;;;4.30;2.58;;;;;;;;;;5041561;28;20028;-63
2021/04/20 04:09:13;;;;;;;2.15;1.95;;;;;;;;;;5037596;28;20380;-63
2021/04/20 04:11:51;;;;;;;6.60;3.08;;;;;;;;;;5045878;28;20021;-63
2021/04/20 04:14:19;;;;;;;3.03;1.45;;;;;;;;;;5043564;28;20025;-62
2021/04/20 04:16:45;;;;;;;2.88;2.17;;;;;;;;;;5038331;28;20016;-62
2021/04/20 04:19:11;;;;;;;3.38;2.28;;;;;;;;;;5040537;28;20046;-63
2021/04/20 04:21:43;;;;;;;7.32;2.97;;;;;;;;;;5045871;28;20083;-63
2021/04/20 04:24:09;;;;;;;3.50;1.92;;;;;;;;;;5041789;28;20057;-62
2021/04/20 04:26:35;;;;;;;3.30;2.25;;;;;;;;;;5037186;28;20093;-63
2021/04/20 04:29:01;;;;;;;2.47;2.08;;;;;;;;;;5041297;28;20025;-63
2021/04/20 04:31:27;;;;;;;3.85;1.83;;;;;;;;;;5044242;28;20448;-63
2021/04/20 04:33:52;;;;;;;3.45;2.90;;;;;;;;;;5040559;28;20029;-62
2021/04/20 04:36:18;;;;;;;6.25;1.50;;;;;;;;;;5040563;28;20025;-63
2021/04/20 04:38:44;;;;;;;3.40;2.08;;;;;;;;;;5043221;28;20040;-63
2021/04/20 04:41:10;;;;;;;3.15;2.80;;;;;;;;;;5047115;28;20025;-62
2021/04/20 04:43:35;;;;;;;5.13;3.35;;;;;;;;;;5042974;28;20025;-62
2021/04/20 04:46:01;;;;;;;6.53;5.05;;;;;;;;;;5039821;28;20036;-63
2021/04/20 04:48:26;;;;;;;4.78;3.03;;;;;;;;;;5049402;28;20025;-62
2021/04/20 04:50:52;;;;;;;7.57;4.22;;;;;;;;;;5038398;28;20029;-63
2021/04/20 04:53:18;;;;;;;4.00;2.92;;;;;;;;;;5042147;28;20055;-62
2021/04/20 04:55:43;;;;;;;4.13;3.63;;;;;;;;;;5042133;28;20025;-63
2021/04/20 04:58:09;;;;;;;11.43;3.78;;;;;;;;;;5044093;28;20021;-63
2021/04/20 05:00:34;;;;;;;3.85;2.80;;;;;;;;;;5042455;28;20120;-64
2021/04/20 05:03:00;;;;;;;7.13;3.55;;;;;;;;;;5043905;28;20107;-63
2021/04/20 05:05:25;;;;;;;6.78;3.40;;;;;;;;;;5046488;28;20034;-63
2021/04/20 05:07:56;;;;;;;5.57;4.72;;;;;;;;;;5045569;28;20478;-63
2021/04/20 05:10:22;;;;;;;8.57;5.20;;;;;;;;;;5043647;28;20107;-63
2021/04/20 05:12:47;;;;;;;8.90;3.58;;;;;;;;;;5045439;28;20124;-64
2021/04/20 05:15:13;;;;;;;5.63;3.33;;;;;;;;;;5044573;28;20029;-63
2021/04/20 05:17:39;;;;;;;6.40;2.90;;;;;;;;;;5042425;28;20128;-67
2021/04/20 05:20:05;;;;;;;5.03;4.53;;;;;;;;;;5043728;28;20036;-66
2021/04/20 05:22:33;;;;;;;9.40;6.93;;;;;;;;;;5044747;28;20078;-66
2021/04/20 05:24:58;;;;;;;5.75;3.83;;;;;;;;;;5042821;28;20364;-66
2021/04/20 05:27:23;;;;;;;4.25;3.45;;;;;;;;;;5042843;28;20062;-66
2021/04/20 05:29:49;;;;;;;5.60;3.47;;;;;;;;;;5040343;28;20028;-63
2021/04/20 05:32:14;;;;;;;5.38;2.47;;;;;;;;;;5044366;28;20455;-62
2021/04/20 05:34:39;;;;;;;9.25;4.32;;;;;;;;;;5039404;28;20049;-63
2021/04/20 05:37:05;;;;;;;11.73;8.88;;;;;;;;;;5041192;28;20034;-65
2021/04/20 05:39:30;;;;;;;15.77;8.90;;;;;;;;;;5044267;28;20147;-65
2021/04/20 05:41:55;;;;;;;8.23;6.22;;;;;;;;;;5042311;28;20132;-65
2021/04/20 05:44:21;;;;;;;26.15;17.00;;;;;;;;;;5038598;28;20543;-65
2021/04/20 05:46:47;;;;;;;7.47;5.13;;;;;;;;;;5039785;28;20105;-65
2021/04/20 05:49:13;;;;;;;7.32;3.58;;;;;;;;;;5045518;28;20025;-65
2021/04/20 05:51:42;;;;;;;18.83;10.38;;;;;;;;;;5047110;28;20024;-66
2021/04/20 05:54:08;;;;;;;19.75;13.48;;;;;;;;;;5054578;28;20384;-67
2021/04/20 05:56:33;;;;;;;44.50;25.05;;;;;;;;;;5054843;28;20096;-67
2021/04/20 05:59:00;;;;;;;46.03;29.05;;;;;;;;;;5046854;28;20111;-67
2021/04/20 06:01:26;;;;;;;37.95;23.40;;;;;;;;;;5045537;28;20025;-66
2021/04/20 06:03:52;;;;;;;36.10;24.33;;;;;;;;;;5041576;28;20036;-66
2021/04/20 06:06:18;;;;;;;20.67;10.60;;;;;;;;;;5044129;28;20025;-66
2021/04/20 06:08:44;;;;;;;8.38;5.80;;;;;;;;;;5046508;28;20032;-66
2021/04/20 06:11:10;;;;;;;12.05;6.55;;;;;;;;;;5044764;28;20029;-66
2021/04/20 06:13:35;;;;;;;7.63;6.03;;;;;;;;;;5039814;28;20387;-66
2021/04/20 06:16:01;;;;;;;17.20;10.88;;;;;;;;;;5041974;28;20105;-67
2021/04/20 06:18:27;;;;;;;7.65;5.80;;;;;;;;;;5047160;28;20087;-66
2021/04/20 06:20:56;;;;;;;15.80;8.02;;;;;;;;;;5041861;28;20029;-66
2021/04/20 06:23:22;;;;;;;10.02;6.90;;;;;;;;;;5036819;28;20036;-64
2021/04/20 06:25:48;;;;;;;19.70;7.70;;;;;;;;;;5043219;28;20033;-65
2021/04/20 06:28:16;;;;;;;18.85;8.10;;;;;;;;;;5045200;28;20386;-65
2021/04/20 06:30:41;;;;;;;6.78;3.85;;;;;;;;;;5041369;28;20087;-66
2021/04/20 06:33:07;;;;;;;9.73;7.45;;;;;;;;;;5040230;28;20554;-66
2021/04/20 06:35:33;;;;;;;52.20;31.95;;;;;;;;;;5044398;28;20025;-66
2021/04/20 06:37:59;;;;;;;14.93;13.13;;;;;;;;;;5042214;28;20132;-66
2021/04/20 06:40:35;;;;;;;7.07;5.10;;;;;;;;;;5037651;28;20033;-66
2021/04/20 06:43:02;;;;;;;9.35;4.97;;;;;;;;;;5037490;28;20482;-66
2021/04/20 06:45:47;;;;;;;5.78;3.45;;;;;;;;;;5045321;28;20079;-66
2021/04/20 06:48:36;;;;;;;8.45;5.50;;;;;;;;;;5044627;28;20415;-66
2021/04/20 06:51:03;;;;;;;5.55;3.88;;;;;;;;;;5042657;28;20032;-66
2021/04/20 06:53:33;;;;;;;3.10;2.38;;;;;;;;;;5049496;28;20013;-66
2021/04/20 06:56:13;;;;;;;13.68;3.13;;;;;;;;;;5046890;28;20013;-66
2021/04/20 06:58:46;;;;;;;3.35;2.63;;;;;;;;;;5043186;28;20478;-66
2021/04/20 07:01:15;;;;;;;3.35;2.15;;;;;;;;;;5042387;28;20491;-66
2021/04/20 07:03:48;;;;;;;3.22;1.98;;;;;;;;;;5049740;28;20033;-66
2021/04/20 07:06:29;;;;;;;2.85;2.65;;;;;;;;;;5046122;28;20040;-66
2021/04/20 07:09:27;;;;;;;6.43;2.97;;;;;;;;;;5045005;28;20025;-66
2021/04/20 07:11:54;;;;;;;5.88;2.53;;;;;;;;;;5028433;28;20120;-66
2021/04/20 07:14:31;;;;;;;5.32;3.75;;;;;;;;;;5047178;28;20029;-66
2021/04/20 07:17:02;;;;;;;3.83;3.05;;;;;;;;;;5050328;28;20036;-66
2021/04/20 07:19:33;;;;;;;6.00;2.78;;;;;;;;;;5050362;28;20316;-66
2021/04/20 07:22:02;;;;;;;3.88;2.70;;;;;;;;;;5064639;28;20052;-66
2021/04/20 07:24:50;;;;;;;5.40;3.58;;;;;;;;;;5049604;28;20057;-66
2021/04/20 07:27:24;;;;;;;6.05;4.60;;;;;;;;;;5029873;28;20037;-66
2021/04/20 07:29:57;;;;;;;4.82;3.53;;;;;;;;;;5046381;28;20471;-66
2021/04/20 07:32:25;;;;;;;15.48;9.38;;;;;;;;;;5046642;28;20025;-66
2021/04/20 07:34:53;;;;;;;9.55;8.55;;;;;;;;;;5045746;28;20407;-67
2021/04/20 07:37:23;;;;;;;4.82;3.28;;;;;;;;;;5048562;28;20052;-67
2021/04/20 07:39:52;;;;;;;9.50;6.95;;;;;;;;;;5044517;28;20483;-67
2021/04/20 07:42:22;;;;;;;18.30;12.02;;;;;;;;;;5047329;28;20037;-66
2021/04/20 07:44:59;;;;;;;11.20;8.73;;;;;;;;;;5047055;28;20137;-66
2021/04/20 07:47:25;;;;;;;7.43;6.18;;;;;;;;;;5045740;28;20056;-66
2021/04/20 07:49:53;;;;;;;8.85;4.47;;;;;;;;;;5045076;28;20021;-66
2021/04/20 07:52:24;;;;;;;5.95;3.47;;;;;;;;;;5044827;28;20059;-66
2021/04/20 07:54:50;;;;;;;;;;;;;;;;;;5044649;28;20029;-66
2021/04/20 07:57:27;;;;;;;4.72;2.80;;;;;;;;;;5046745;28;19919;-66
2021/04/20 07:59:52;;;;;;;4.38;2.88;;;;;;;;;;5041597;28;20033;-66
2021/04/20 08:02:21;;;;;;;6.93;2.78;;;;;;;;;;5044626;28;20064;-66
2021/04/20 08:04:52;;;;;;;4.47;2.92;;;;;;;;;;5044847;28;20054;-65
2021/04/20 08:07:23;;;;;;;4.60;2.15;;;;;;;;;;5043773;28;20021;-66
2021/04/20 08:09:49;;;;;;;4.25;2.88;;;;;;;;;;5040810;28;20041;-65
2021/04/20 08:12:18;;;;;;;2.80;2.10;;;;;;;;;;5045969;28;20025;-65
2021/04/20 08:14:47;;;;;;;7.88;3.97;;;;;;;;;;5046496;28;20477;-65
2021/04/20 08:17:28;;;;;;;5.75;2.15;;;;;;;;;;5042115;28;20022;-65
2021/04/20 08:19:54;;;;;;;3.08;2.67;;;;;;;;;;5038951;28;20063;-65
2021/04/20 08:22:19;;;;;;;3.50;1.92;;;;;;;;;;5045309;28;20049;-65
2021/04/20 08:24:51;;;;;;;11.18;3.00;;;;;;;;;;5031159;28;20048;-65
2021/04/20 08:27:37;;;;;;;10.02;2.50;;;;;;;;;;5039051;28;20029;-65
2021/04/20 08:30:06;;;;;;;4.00;2.88;;;;;;;;;;5035693;28;20113;-65
2021/04/20 08:32:32;;;;;;;2.28;1.58;;;;;;;;;;5043126;28;20031;-66
2021/04/20 08:35:05;;;;;;;16.30;3.17;;;;;;;;;;5038620;28;20095;-66
2021/04/20 08:37:33;;;;;;;3.45;2.33;;;;;;;;;;5035428;28;20022;-63
2021/04/20 08:40:07;;;;;;;3.95;2.35;;;;;;;;;;5039380;28;20099;-63
2021/04/20 08:42:39;;;;;;;11.95;2.88;;;;;;;;;;5044968;28;20029;-63
2021/04/20 08:45:19;;;;;;;3.17;1.77;;;;;;;;;;5035298;28;20041;-63
2021/04/20 08:48:03;;;;;;;3.72;1.73;;;;;;;;;;5043920;28;20032;-63
2021/04/20 08:50:32;;;;;;;4.75;2.28;;;;;;;;;;5044932;28;20098;-63
2021/04/20 08:53:19;;;;;;;5.13;2.70;;;;;;;;;;5045570;28;20071;-63
2021/04/20 08:55:52;;;;;;;3.80;2.47;;;;;;;;;;5042725;28;20079;-63
2021/04/20 08:58:24;;;;;;;4.28;2.55;;;;;;;;;;5045478;28;20036;-63
2021/04/20 09:00:50;;;;;;;7.22;3.92;;;;;;;;;;5059657;28;20340;-63
2021/04/20 09:03:15;;;;;;;3.30;1.95;;;;;;;;;;5041764;28;20021;-64
2021/04/20 09:05:52;;;;;;;6.28;3.05;;;;;;;;;;5042815;28;20128;-64
2021/04/20 09:08:37;;;;;;;3.17;2.40;;;;;;;;;;5043821;28;20199;-64
2021/04/20 09:11:06;;;;;;;6.18;3.90;;;;;;;;;;5040629;28;20044;-64
2021/04/20 09:13:52;;;;;;;3.70;2.55;;;;;;;;;;5041744;28;20053;-63
2021/04/20 09:16:21;;;;;;;6.13;2.95;;;;;;;;;;5039223;28;20491;-64
2021/04/20 09:18:47;;;;;;;3.85;2.15;;;;;;;;;;5038609;28;20048;-64
2021/04/20 09:21:12;;;;;;;7.55;2.53;;;;;;;;;;5044653;28;20028;-64
2021/04/20 09:23:40;;;;;;;3.47;1.98;;;;;;;;;;5047232;28;20033;-63
2021/04/20 09:26:25;;;;;;;3.45;2.03;;;;;;;;;;5041509;28;20028;-65
2021/04/20 09:29:00;;;;;;;1.70;1.40;;;;;;;;;;5043986;28;20037;-65
2021/04/20 09:31:29;;;;;;;4.63;2.30;;;;;;;;;;5046949;28;20029;-65
2021/04/20 09:33:54;;;;;;;4.57;2.58;;;;;;;;;;5042563;28;20029;-64
2021/04/20 09:36:23;;;;;;;28.08;2.88;;;;;;;;;;5046655;28;20024;-62
2021/04/20 09:38:50;;;;;;;6.72;3.03;;;;;;;;;;5043849;28;20388;-64
2021/04/20 09:41:25;;;;;;;2.45;1.75;;;;;;;;;;5046902;28;20039;-64
2021/04/20 09:44:06;;;;;;;2.03;1.52;;;;;;;;;;5042613;28;20022;-64
2021/04/20 09:46:34;;;;;;;8.63;2.63;;;;;;;;;;5038862;28;20029;-64
2021/04/20 09:49:08;;;;;;;4.15;2.38;;;;;;;;;;5044776;28;20037;-64
2021/04/20 09:51:47;;;;;;;3.13;1.63;;;;;;;;;;5043679;28;20021;-64
2021/04/20 09:54:16;;;;;;;5.80;3.03;;;;;;;;;;5042224;28;21019;-64
2021/04/20 09:56:42;;;;;;;8.88;2.95;;;;;;;;;;5040654;28;20468;-64
2021/04/20 09:59:19;;;;;;;6.72;3.33;;;;;;;;;;5042965;28;20022;-65
2021/04/20 10:01:50;;;;;;;5.30;3.15;;;;;;;;;;5041245;28;20056;-64
2021/04/20 10:04:15;;;;;;;;;;;;;;;;;;5039790;28;20032;-63
2021/04/20 10:06:44;;;;;;;2.90;2.13;;;;;;;;;;5041092;28;19958;-64
2021/04/20 10:09:19;;;;;;;3.60;2.42;;;;;;;;;;5043156;28;20078;-64
2021/04/20 10:11:44;;;;;;;5.90;2.30;;;;;;;;;;5038237;28;20025;-63
2021/04/20 10:14:13;;;;;;;2.45;1.67;;;;;;;;;;5038608;28;20033;-63
2021/04/20 10:16:41;;;;;;;3.70;2.25;;;;;;;;;;5040223;28;20061;-64
2021/04/20 10:19:15;;;;;;;5.13;3.08;;;;;;;;;;5057330;28;20045;-64
2021/04/20 10:22:17;;;;;;;4.90;1.98;;;;;;;;;;5036830;28;20468;-64
2021/04/20 10:24:46;;;;;;;4.40;2.10;;;;;;;;;;5026734;28;20504;-64
2021/04/20 10:27:12;;;;;;;1.70;1.40;;;;;;;;;;5040675;28;20116;-64
2021/04/20 10:29:56;;;;;;;2.80;1.90;;;;;;;;;;5039808;28;20484;-65
2021/04/20 10:32:31;;;;;;;3.30;2.45;;;;;;;;;;5034576;28;20025;-65
2021/04/20 10:34:57;;;;;;;2.65;1.48;;;;;;;;;;5041087;28;20021;-65
2021/04/20 10:37:30;;;;;;;3.10;1.98;;;;;;;;;;5043892;28;20025;-64
2021/04/20 10:39:56;;;;;;;3.53;1.85;;;;;;;;;;5039656;28;20427;-64
2021/04/20 10:42:31;;;;;;;8.93;2.05;;;;;;;;;;5035046;28;20028;-65
2021/04/20 10:44:57;;;;;;;3.78;2.88;;;;;;;;;;5046964;28;20115;-65
2021/04/20 10:47:23;;;;;;;2.70;1.83;;;;;;;;;;5042649;28;20602;-64
2021/04/20 10:49:52;;;;;;;2.13;1.65;;;;;;;;;;5036455;28;20532;-63
2021/04/20 10:52:19;;;;;;;3.13;2.33;;;;;;;;;;5036546;28;20025;-64
2021/04/20 10:54:45;;;;;;;1.73;1.38;;;;;;;;;;5045337;28;20108;-64
2021/04/20 10:57:11;;;;;;;5.13;2.10;;;;;;;;;;5039894;28;20028;-63
2021/04/20 10:59:39;;;;;;;2.10;1.45;;;;;;;;;;5054639;28;20022;-63
2021/04/20 11:02:10;;;;;;;6.68;2.35;;;;;;;;;;5040762;28;20028;-64
2021/04/20 11:04:36;;;;;;;4.78;2.22;;;;;;;;;;5044577;28;20053;-65
2021/04/20 11:07:02;;;;;;;2.53;1.70;;;;;;;;;;5039764;28;20017;-65
2021/04/20 11:09:31;;;;;;;8.00;2.15;;;;;;;;;;5057141;28;20040;-65
2021/04/20 11:11:57;;;;;;;4.22;2.30;;;;;;;;;;5047080;28;20033;-65
2021/04/20 11:14:35;;;;;;;2.40;1.15;;;;;;;;;;5042837;28;20026;-64
2021/04/20 11:17:01;;;;;;;2.08;1.42;;;;;;;;;;5046206;28;20031;-65
2021/04/20 11:19:26;;;;;;;4.75;1.50;;;;;;;;;;5047732;28;20504;-65
2021/04/20 11:21:52;;;;;;;10.80;2.33;;;;;;;;;;5042970;28;20025;-65
2021/04/20 11:24:18;;;;;;;6.93;1.95;;;;;;;;;;5053363;28;20117;-66
2021/04/20 11:26:46;;;;;;;2.40;1.27;;;;;;;;;;5038104;28;20045;-63
2021/04/20 11:29:20;;;;;;;1.77;0.90;;;;;;;;;;5038754;28;20457;-63
2021/04/20 11:31:46;;;;;;;1.77;1.20;;;;;;;;;;5042727;28;20078;-63
2021/04/20 11:34:22;;;;;;;6.60;1.80;;;;;;;;;;5038299;28;20028;-64
2021/04/20 11:36:51;;;;;;;2.70;1.38;;;;;;;;;;5055710;28;20025;-64
2021/04/20 11:39:25;;;;;;;2.13;1.20;;;;;;;;;;5042793;28;20064;-64
2021/04/20 11:42:06;;;;;;;2.53;1.10;;;;;;;;;;5038954;28;20036;-64
2021/04/20 11:44:37;;;;;;;1.67;0.75;;;;;;;;;;5038829;28;20108;-65
2021/04/20 11:47:03;;;;;;;2.20;1.13;;;;;;;;;;5041001;28;20025;-64
2021/04/20 11:49:30;;;;;;;3.17;2.15;;;;;;;;;;5040864;28;20052;-64
2021/04/20 11:51:56;;;;;;;2.22;1.27;;;;;;;;;;5039513;28;20025;-63
2021/04/20 11:54:23;;;;;;;3.60;0.95;;;;;;;;;;5042799;28;20104;-64
2021/04/20 11:56:50;;;;;;;0.80;0.55;;;;;;;;;;5034390;28;20030;-64
2021/04/20 11:59:22;;;;;;;2.28;1.35;;;;;;;;;;5037927;28;20040;-64
2021/04/20 12:01:48;;;;;;;6.65;2.38;;;;;;;;;;5038228;28;20071;-64
2021/04/20 12:04:14;;;;;;;2.53;1.35;;;;;;;;;;5041881;28;20035;-64
2021/04/20 12:06:43;;;;;;;2.13;1.50;;;;;;;;;;5038231;28;20750;-63
2021/04/20 12:09:13;;;;;;;2.10;1.40;;;;;;;;;;5038878;28;20029;-64
2021/04/20 12:11:39;;;;;;;3.38;1.70;;;;;;;;;;5038182;28;20526;-64
2021/04/20 12:14:05;;;;;;;2.40;1.67;;;;;;;;;;5040322;28;20025;-63
2021/04/20 12:16:40;;;;;;;6.05;1.25;;;;;;;;;;5042959;28;20551;-64
2021/04/20 12:19:06;;;;;;;2.47;1.55;;;;;;;;;;5038893;28;20137;-63
2021/04/20 12:21:35;;;;;;;2.95;1.27;;;;;;;;;;5040817;28;20061;-65
2021/04/20 12:24:01;;;;;;;2.83;1.38;;;;;;;;;;5036724;28;20391;-64
2021/04/20 12:26:28;;;;;;;2.75;1.63;;;;;;;;;;5035840;28;20029;-64
2021/04/20 12:28:56;;;;;;;2.20;1.30;;;;;;;;;;5035429;28;20115;-64
2021/04/20 12:31:28;;;;;;;2.95;1.52;;;;;;;;;;5039199;28;20136;-63
2021/04/20 12:33:54;;;;;;;9.48;1.88;;;;;;;;;;5038328;28;20651;-64
2021/04/20 12:36:23;;;;;;;2.17;1.35;;;;;;;;;;5037451;28;20018;-64
2021/04/20 12:38:49;;;;;;;17.02;2.25;;;;;;;;;;5038291;28;20515;-65
2021/04/20 12:41:15;;;;;;;2.30;1.00;;;;;;;;;;5039154;28;20029;-64
2021/04/20 12:43:41;;;;;;;2.97;1.45;;;;;;;;;;5039052;28;20168;-64
2021/04/20 12:46:11;;;;;;;3.47;1.77;;;;;;;;;;5045089;28;20063;-64
2021/04/20 12:48:38;;;;;;;2.75;1.40;;;;;;;;;;5042142;28;20033;-64
2021/04/20 12:51:05;;;;;;;2.35;1.77;;;;;;;;;;5040337;28;20049;-65
2021/04/20 12:53:32;;;;;;;2.08;1.13;;;;;;;;;;5039201;28;20428;-64
2021/04/20 12:55:59;;;;;;;3.03;1.90;;;;;;;;;;5040613;28;20029;-64
2021/04/20 12:58:26;;;;;;;10.73;1.25;;;;;;;;;;5037910;28;20479;-63
2021/04/20 13:01:05;;;;;;;1.42;0.95;;;;;;;;;;5037002;28;20557;-64
2021/04/20 13:03:31;;;;;;;4.55;1.30;;;;;;;;;;5039281;28;20534;-64
2021/04/20 13:05:57;;;;;;;3.30;1.80;;;;;;;;;;5038651;28;20072;-64
2021/04/20 13:08:23;;;;;;;1.17;0.88;;;;;;;;;;5036201;28;20060;-63
2021/04/20 13:10:56;;;;;;;2.63;1.55;;;;;;;;;;5038409;28;20040;-64
2021/04/20 13:13:23;;;;;;;2.78;1.65;;;;;;;;;;5039686;28;20426;-64
2021/04/20 13:15:49;;;;;;;2.75;1.63;;;;;;;;;;5038642;28;20091;-64
2021/04/20 13:18:16;;;;;;;2.80;1.23;;;;;;;;;;5034868;28;20041;-64
2021/04/20 13:20:42;;;;;;;5.05;1.98;;;;;;;;;;5052298;28;20107;-64
2021/04/20 13:23:24;;;;;;;0.90;0.50;;;;;;;;;;5036405;28;20537;-65
2021/04/20 13:25:54;;;;;;;3.60;1.27;;;;;;;;;;5041451;28;20029;-63
2021/04/20 13:28:27;;;;;;;1.75;1.15;;;;;;;;;;5038500;28;20038;-64
2021/04/20 13:30:52;;;;;;;2.83;1.80;;;;;;;;;;5038455;28;20025;-64
2021/04/20 13:33:19;;;;;;;2.83;2.00;;;;;;;;;;5039676;28;20017;-64
2021/04/20 13:35:45;;;;;;;3.53;2.53;;;;;;;;;;5036193;28;20073;-65
2021/04/20 13:38:11;;;;;;;4.57;2.15;;;;;;;;;;5035242;28;20104;-64
2021/04/20 13:40:36;;;;;;;2.63;1.27;;;;;;;;;;5040056;28;20108;-64
2021/04/20 13:43:02;;;;;;;3.00;1.92;;;;;;;;;;5035872;28;20024;-64
2021/04/20 13:45:32;;;;;;;1.25;0.75;;;;;;;;;;5034390;28;20040;-64
2021/04/20 13:47:58;;;;;;;9.38;4.13;;;;;;;;;;5038692;28;20048;-63
2021/04/20 13:50:25;;;;;;;1.63;1.52;;;;;;;;;;5040351;28;20041;-65
2021/04/20 13:52:52;;;;;;;2.80;1.83;;;;;;;;;;5040665;28;20031;-64
2021/04/20 13:55:20;;;;;;;5.97;2.97;;;;;;;;;;5039276;28;20055;-64
2021/04/20 13:57:54;;;;;;;8.07;7.38;;;;;;;;;;5036599;28;20026;-64
2021/04/20 14:00:24;;;;;;;9.95;9.02;;;;;;;;;;5036280;28;20786;-64
2021/04/20 14:02:52;;;;;;;5.82;4.55;;;;;;;;;;5037257;28;20017;-64
2021/04/20 14:05:19;;;;;;;2.63;2.33;;;;;;;;;;5039157;28;20129;-64
2021/04/20 14:07:52;;;;;;;6.05;3.17;;;;;;;;;;5037923;28;20062;-64
2021/04/20 14:10:22;;;;;;;3.22;2.63;;;;;;;;;;5040111;28;20055;-63
2021/04/20 14:12:55;;;;;;;5.07;3.95;;;;;;;;;;5040351;28;20017;-64
2021/04/20 14:15:26;;;;;;;3.60;2.20;;;;;;;;;;5041871;28;20025;-64
2021/04/20 14:18:02;;;;;;;15.38;2.92;;;;;;;;;;5042191;28;20042;-64
2021/04/20 14:20:31;;;;;;;5.20;1.73;;;;;;;;;;5040927;28;20468;-65
2021/04/20 14:22:58;;;;;;;6.78;4.15;;;;;;;;;;5045471;28;20021;-65
2021/04/20 14:25:24;;;;;;;4.30;3.80;;;;;;;;;;5047680;28;20029;-65
2021/04/20 14:27:53;;;;;;;8.27;3.40;;;;;;;;;;5044615;28;20103;-66
2021/04/20 14:30:19;;;;;;;4.47;2.50;;;;;;;;;;5044229;28;20024;-65
2021/04/20 14:32:48;;;;;;;7.50;2.80;;;;;;;;;;5045577;28;20472;-64
2021/04/20 14:35:16;;;;;;;3.60;2.63;;;;;;;;;;5043297;28;20132;-64
2021/04/20 14:37:44;;;;;;;8.27;3.10;;;;;;;;;;5040277;28;20090;-65
2021/04/20 14:40:12;;;;;;;5.35;4.93;;;;;;;;;;5047545;28;20116;-64
2021/04/20 14:42:38;;;;;;;7.50;5.38;;;;;;;;;;5047138;28;20128;-65
2021/04/20 14:45:04;;;;;;;3.08;2.33;;;;;;;;;;5044520;28;20060;-65
2021/04/20 14:47:30;;;;;;;6.53;2.45;;;;;;;;;;5042843;28;20033;-65